Time;durP1;ratioP1;P1;durP2;ratioP2;P2;SDS_P1;SDS_P2;PMS_P1;PMS_P2;Temp;Humidity;BMP_temperature;BMP_pressure;BME280_temperature;BME280_humidity;BME280_pressure;Samples;Min_cycle;Max_cycle;Signal;HPM_P1;HPM_P2
2023/05/25 00:01:03;;;;;;;;;27.25;22.00;;;;;11.85;99.12;98915.91;4823545;29;102035;-71
2023/05/25 00:03:30;;;;;;;;;26.50;24.00;;;;;11.83;98.26;98915.28;4824003;29;102126;-71
2023/05/25 00:06:14;;;;;;;;;29.25;26.50;;;;;11.79;99.03;98906.75;4823581;28;102700;-71
2023/05/25 00:08:58;;;;;;;;;37.50;33.00;;;;;11.73;98.61;98918.38;4820939;29;107648;-71
2023/05/25 00:11:40;;;;;;;;;32.50;27.00;;;;;11.81;98.73;98920.06;4820839;28;102834;-71
2023/05/25 00:14:27;;;;;;;;;31.75;27.75;;;;;11.85;98.68;98910.50;4820842;29;102111;-71
2023/05/25 00:17:02;;;;;;;;;31.00;24.25;;;;;11.83;98.93;98923.44;4824795;28;102238;-71
2023/05/25 00:19:32;;;;;;;;;28.25;25.00;;;;;11.86;99.21;98923.00;4821859;29;104127;-71
2023/05/25 00:22:02;;;;;;;;;31.75;28.00;;;;;11.84;99.23;98914.25;4823833;28;101992;-71
2023/05/25 00:24:30;;;;;;;;;27.75;25.75;;;;;11.82;98.87;98921.75;4822498;28;102094;-71
2023/05/25 00:26:57;;;;;;;;;36.50;29.50;;;;;11.72;98.99;98907.69;4821839;29;102297;-71
2023/05/25 00:29:25;;;;;;;;;25.75;22.25;;;;;11.78;98.58;98920.47;4823212;28;104110;-71
2023/05/25 00:31:52;;;;;;;;;31.75;28.25;;;;;11.47;99.29;98880.28;4821349;28;102174;-71
2023/05/25 00:34:20;;;;;;;;;39.00;33.75;;;;;11.67;98.71;98923.72;4819748;28;102717;-71
2023/05/25 00:36:47;;;;;;;;;30.75;26.25;;;;;11.69;98.73;98921.66;4820930;28;102148;-71
2023/05/25 00:39:15;;;;;;;;;33.00;29.75;;;;;11.63;98.62;98921.41;4814705;28;104045;-71
2023/05/25 00:41:46;;;;;;;;;26.75;26.00;;;;;11.60;98.31;98916.41;4818037;28;102124;-71
2023/05/25 00:44:14;;;;;;;;;36.00;31.75;;;;;11.59;97.67;98922.84;4816060;28;103606;-71
2023/05/25 00:46:49;;;;;;;;;33.25;30.75;;;;;11.59;97.60;98922.00;4819781;28;102369;-71
2023/05/25 00:49:22;;;;;;;;;27.00;25.75;;;;;11.59;98.16;98914.72;4818914;28;104004;-71
2023/05/25 00:51:50;;;;;;;;;34.00;27.75;;;;;11.52;97.92;98911.16;4818957;28;102080;-71
2023/05/25 00:54:18;;;;;;;;;28.50;25.25;;;;;11.24;98.18;98864.31;4814933;28;102091;-71
2023/05/25 00:56:52;;;;;;;;;32.00;29.50;;;;;11.48;98.26;98917.97;4815094;28;102433;-71
2023/05/25 00:59:35;;;;;;;;;27.00;25.00;;;;;11.52;98.62;98921.97;4819776;28;104061;-70
2023/05/25 01:02:05;;;;;;;;;33.50;29.50;;;;;11.40;97.88;98907.31;4815100;28;103281;-71
2023/05/25 01:04:46;;;;;;;;;28.00;26.00;;;;;11.44;98.00;98922.13;4816791;28;101949;-71
2023/05/25 01:07:34;;;;;;;;;37.25;30.50;;;;;11.39;98.80;98921.06;4817825;28;102191;-70
2023/05/25 01:10:22;;;;;;;;;36.75;32.00;;;;;11.36;97.94;98919.56;4815907;29;108788;-71
2023/05/25 01:13:07;;;;;;;;;31.25;25.50;;;;;11.40;98.69;98918.13;4817583;28;102228;-71
2023/05/25 01:16:06;;;;;;;;;32.00;28.75;;;;;11.43;98.19;98934.00;4818618;28;102273;-71
2023/05/25 01:18:40;;;;;;;;;32.00;28.00;;;;;11.45;98.51;98937.34;4818487;28;102313;-70
2023/05/25 01:21:19;;;;;;;;;24.00;21.25;;;;;11.50;98.05;98934.88;4818376;29;104479;-71
2023/05/25 01:23:51;;;;;;;;;22.00;21.25;;;;;11.50;98.31;98923.19;4817300;28;102117;-71
2023/05/25 01:26:22;;;;;;;;;22.75;19.25;;;;;11.56;97.83;98933.25;4816807;28;102064;-71
2023/05/25 01:28:52;;;;;;;;;19.75;16.50;;;;;11.58;97.11;98929.28;4816397;28;103764;-71
2023/05/25 01:31:22;;;;;;;;;25.75;23.25;;;;;11.48;97.04;98933.41;4813219;28;104038;-71
2023/05/25 01:33:50;;;;;;;;;30.50;27.00;;;;;11.43;98.21;98939.44;4801206;28;104140;-71
2023/05/25 01:36:18;;;;;;;;;38.25;31.00;;;;;11.33;98.54;98928.09;4803398;29;102628;-71
2023/05/25 01:38:46;;;;;;;;;24.50;20.75;;;;;11.41;98.49;98930.66;4801351;28;102709;-71
2023/05/25 01:41:13;;;;;;;;;23.75;19.50;;;;;11.39;97.92;98938.13;4801393;28;104046;-71
2023/05/25 01:43:40;;;;;;;;;30.50;27.50;;;;;11.35;98.50;98936.84;4801000;29;103373;-71
2023/05/25 01:46:30;;;;;;;;;24.75;22.75;;;;;11.33;98.46;98938.09;4804127;29;102911;-71
2023/05/25 01:49:24;;;;;;;;;28.75;23.50;;;;;11.24;99.10;98937.41;4800555;29;103103;-71
2023/05/25 01:52:06;;;;;;;;;22.50;20.25;;;;;11.29;99.35;98937.66;4798688;29;108946;-71
2023/05/25 01:54:46;;;;;;;;;16.00;15.50;;;;;11.30;98.91;98928.47;4798977;29;102399;-70
2023/05/25 01:57:16;;;;;;;;;14.00;12.50;;;;;11.34;98.85;98929.78;4795460;28;102089;-71
2023/05/25 01:59:45;;;;;;;;;11.25;11.00;;;;;11.36;98.80;98933.09;4801249;28;102448;-71
2023/05/25 02:02:17;;;;;;;;;19.25;18.00;;;;;11.28;99.96;98927.84;4800751;28;103996;-71
2023/05/25 02:04:46;;;;;;;;;14.00;13.50;;;;;11.31;99.93;98924.75;4800704;28;102671;-71
2023/05/25 02:07:13;;;;;;;;;15.00;15.00;;;;;11.35;100.00;98919.75;4799543;29;102152;-71
2023/05/25 02:09:40;;;;;;;;;13.00;11.00;;;;;11.36;99.30;98910.63;4803307;29;102274;-71
2023/05/25 02:12:07;;;;;;;;;12.75;12.00;;;;;11.37;99.96;98910.41;4782258;28;104513;-71
2023/05/25 02:14:34;;;;;;;;;9.25;8.00;;;;;11.44;99.30;98914.00;4799613;28;102057;-71
2023/05/25 02:17:02;;;;;;;;;7.75;6.00;;;;;11.44;99.08;98896.91;4802449;28;103240;-72
2023/05/25 02:19:29;;;;;;;;;8.75;7.00;;;;;11.48;98.67;98907.16;4800305;28;106862;-71
2023/05/25 02:21:56;;;;;;;;;9.75;9.25;;;;;11.47;99.53;98912.78;4801061;29;104049;-71
2023/05/25 02:24:24;;;;;;;;;14.75;12.75;;;;;11.41;99.76;98914.41;4803016;29;103180;-71
2023/05/25 02:26:51;;;;;;;;;12.00;11.50;;;;;11.41;99.18;98924.41;4799942;28;102813;-71
2023/05/25 02:29:18;;;;;;;;;7.25;7.25;;;;;11.47;99.29;98915.50;4799185;29;102972;-71
2023/05/25 02:31:45;;;;;;;;;10.50;9.50;;;;;11.43;99.45;98909.63;4813745;28;104128;-71
2023/05/25 02:34:12;;;;;;;;;9.00;8.00;;;;;11.42;99.55;98915.25;4818463;28;102285;-71
2023/05/25 02:36:42;;;;;;;;;20.75;19.75;;;;;11.30;98.90;98917.66;4820859;29;102080;-71
2023/05/25 02:39:10;;;;;;;;;26.25;18.50;;;;;11.24;99.64;98915.75;4817056;28;101979;-71
2023/05/25 02:41:37;;;;;;;;;19.00;17.25;;;;;11.25;99.97;98917.44;4815907;29;108805;-71
2023/05/25 02:44:05;;;;;;;;;15.00;13.00;;;;;11.26;100.00;98916.38;4817984;28;102084;-71
2023/05/25 02:46:32;;;;;;;;;16.25;13.50;;;;;11.22;100.00;98923.22;4818858;29;102142;-71
2023/05/25 02:49:00;;;;;;;;;21.75;17.50;;;;;11.16;100.00;98922.16;4821278;28;102285;-71
2023/05/25 02:51:27;;;;;;;;;23.75;19.25;;;;;11.14;100.00;98923.38;4805073;28;104235;-71
2023/05/25 02:53:54;;;;;;;;;16.50;15.75;;;;;11.20;100.00;98919.88;4805001;29;102090;-71
2023/05/25 02:56:21;;;;;;;;;22.25;20.50;;;;;11.12;100.00;98914.63;4820403;29;102140;-71
2023/05/25 02:58:49;;;;;;;;;23.50;20.50;;;;;11.04;100.00;98912.88;4819026;28;102346;-71
2023/05/25 03:01:19;;;;;;;;;18.75;17.50;;;;;11.12;100.00;98912.72;4822218;29;104029;-71
2023/05/25 03:03:51;;;;;;;;;14.00;13.00;;;;;11.17;100.00;98906.72;4823052;28;102142;-71
2023/05/25 03:06:20;;;;;;;;;21.50;15.75;;;;;11.16;100.00;98919.44;4818491;28;102123;-71
2023/05/25 03:08:47;;;;;;;;;18.50;16.50;;;;;11.22;100.00;98911.56;4824965;28;102089;-71
2023/05/25 03:11:14;;;;;;;;;10.00;8.25;;;;;11.30;100.00;98912.22;4820761;29;104018;-71
2023/05/25 03:13:41;;;;;;;;;12.75;11.00;;;;;11.35;100.00;98919.75;4821601;28;102120;-71
2023/05/25 03:16:08;;;;;;;;;19.50;18.50;;;;;11.26;100.00;98913.66;4825121;29;102163;-71
2023/05/25 03:18:35;;;;;;;;;21.00;19.25;;;;;11.23;100.00;98916.78;4821518;28;102161;-71
2023/05/25 03:21:02;;;;;;;;;18.75;16.50;;;;;11.20;100.00;98911.78;4822010;29;104026;-71
2023/05/25 03:23:29;;;;;;;;;27.25;25.00;;;;;11.14;100.00;98909.84;4823835;28;101941;-71
2023/05/25 03:25:56;;;;;;;;;16.75;15.00;;;;;11.21;100.00;98924.28;4821303;28;102141;-71
2023/05/25 03:28:23;;;;;;;;;14.00;14.00;;;;;11.24;100.00;98918.47;4820939;29;102431;-71
2023/05/25 03:30:50;;;;;;;;;10.75;9.50;;;;;11.35;100.00;98926.00;4821233;28;104093;-71
2023/05/25 03:33:17;;;;;;;;;8.00;7.50;;;;;11.40;100.00;98915.44;4822659;28;103036;-71
2023/05/25 03:35:44;;;;;;;;;19.00;15.75;;;;;11.37;100.00;98923.97;4822433;28;102004;-71
2023/05/25 03:38:12;;;;;;;;;18.50;17.50;;;;;11.35;100.00;98911.63;4821549;28;102910;-70
2023/05/25 03:40:39;;;;;;;;;17.50;16.25;;;;;11.31;100.00;98919.31;4822424;28;104028;-71
2023/05/25 03:43:05;;;;;;;;;20.50;16.75;;;;;11.36;100.00;98921.44;4823464;28;102059;-71
2023/05/25 03:45:32;;;;;;;;;25.00;23.50;;;;;11.20;100.00;98922.59;4819633;28;102399;-71
2023/05/25 03:48:00;;;;;;;;;20.75;18.25;;;;;11.29;99.85;98928.69;4824298;28;102400;-71
2023/05/25 03:50:26;;;;;;;;;21.50;19.75;;;;;11.27;100.00;98930.75;4818558;29;104169;-71
2023/05/25 03:52:53;;;;;;;;;20.25;18.50;;;;;11.27;99.76;98928.03;4821079;28;102593;-71
2023/05/25 03:55:20;;;;;;;;;17.25;13.75;;;;;11.34;99.78;98926.22;4820497;28;102366;-71
2023/05/25 03:57:47;;;;;;;;;9.00;8.00;;;;;11.42;100.00;98931.50;4822747;28;102342;-71
2023/05/25 04:00:15;;;;;;;;;13.00;12.25;;;;;11.48;99.41;98936.13;4822600;29;108566;-71
2023/05/25 04:02:42;;;;;;;;;13.25;12.00;;;;;11.44;98.96;98945.66;4823239;28;101764;-72
2023/05/25 04:05:09;;;;;;;;;19.75;17.25;;;;;11.38;99.60;98944.59;4820477;28;101971;-71
2023/05/25 04:07:36;;;;;;;;;17.00;16.50;;;;;11.36;99.00;98949.34;4824770;28;102177;-71
2023/05/25 04:10:04;;;;;;;;;15.75;14.75;;;;;11.30;99.93;98931.19;4821805;28;104002;-71
2023/05/25 04:12:31;;;;;;;;;17.50;15.75;;;;;11.42;99.26;98945.03;4818582;28;102052;-71
2023/05/25 04:14:58;;;;;;;;;15.00;13.00;;;;;11.47;99.02;98939.84;4817815;29;102050;-71
2023/05/25 04:17:25;;;;;;;;;15.25;13.50;;;;;11.44;98.74;98948.34;4824339;28;102057;-71
2023/05/25 04:19:52;;;;;;;;;19.25;16.75;;;;;11.42;98.25;98943.16;4819448;29;104112;-71
2023/05/25 04:22:19;;;;;;;;;19.25;15.75;;;;;11.43;98.68;98947.53;4821066;28;102356;-72
2023/05/25 04:24:47;;;;;;;;;18.75;16.00;;;;;11.39;98.65;98946.25;4823569;29;102458;-71
2023/05/25 04:27:14;;;;;;;;;22.00;20.75;;;;;11.36;98.66;98954.78;4821422;28;102274;-72
2023/05/25 04:29:41;;;;;;;;;23.50;22.25;;;;;11.33;98.14;98962.44;4820082;28;104205;-71
2023/05/25 04:32:09;;;;;;;;;17.75;16.75;;;;;11.37;99.16;98940.19;4818528;29;102252;-71
2023/05/25 04:34:36;;;;;;;;;30.25;23.75;;;;;11.38;98.01;98952.72;4817398;28;102075;-70
2023/05/25 04:37:04;;;;;;;;;32.25;28.50;;;;;11.41;97.94;98954.19;4820336;28;102012;-71
2023/05/25 04:39:31;;;;;;;;;32.25;26.75;;;;;11.34;98.57;98956.00;4820148;28;104035;-71
2023/05/25 04:42:03;;;;;;;;;32.75;23.25;;;;;11.43;98.69;98966.50;4821355;28;102385;-71
2023/05/25 04:44:31;;;;;;;;;25.00;22.25;;;;;11.48;97.83;98957.78;4817194;29;101844;-71
2023/05/25 04:47:00;;;;;;;;;22.50;19.75;;;;;11.54;98.00;98967.81;4822923;28;102387;-71
2023/05/25 04:49:27;;;;;;;;;33.00;26.75;;;;;11.47;97.77;98972.34;4821169;28;103970;-71
2023/05/25 04:51:54;;;;;;;;;30.00;27.50;;;;;11.44;98.83;98961.91;4823219;29;102148;-71
2023/05/25 04:54:21;;;;;;;;;29.00;26.50;;;;;11.45;98.34;98964.41;4820505;28;102223;-71
2023/05/25 04:56:48;;;;;;;;;28.50;26.50;;;;;11.51;98.33;98971.75;4821931;29;102382;-70
2023/05/25 04:59:15;;;;;;;;;26.25;21.00;;;;;11.32;98.08;98929.13;4820230;29;104151;-70
2023/05/25 05:01:43;;;;;;;;;35.75;30.00;;;;;11.45;98.17;98969.81;4821375;29;102579;-71
2023/05/25 05:04:10;;;;;;;;;43.75;36.50;;;;;11.39;98.55;98973.31;4821549;28;101948;-71
2023/05/25 05:06:38;;;;;;;;;48.00;35.75;;;;;11.41;98.91;98979.38;4824786;29;102061;-71
2023/05/25 05:09:05;;;;;;;;;39.00;35.50;;;;;11.36;99.30;98979.13;4821662;29;104141;-70
2023/05/25 05:11:32;;;;;;;;;40.50;33.00;;;;;11.40;99.57;98982.28;4821936;29;102528;-71
2023/05/25 05:13:59;;;;;;;;;44.75;34.25;;;;;11.38;99.14;98974.38;4821514;29;101847;-71
2023/05/25 05:16:30;;;;;;;;;41.00;34.25;;;;;11.36;99.26;98976.44;4820534;29;102835;-71
2023/05/25 05:18:57;;;;;;;;;33.50;31.25;;;;;11.45;99.36;98977.13;4819821;28;104097;-70
2023/05/25 05:21:24;;;;;;;;;37.75;33.75;;;;;11.45;98.79;98986.06;4820989;28;103261;-70
2023/05/25 05:23:51;;;;;;;;;33.75;30.00;;;;;11.52;99.22;98986.97;4820133;29;102032;-71
2023/05/25 05:26:20;;;;;;;;;30.50;26.75;;;;;11.58;98.61;98986.16;4821669;28;102189;-71
2023/05/25 05:28:46;;;;;;;;;32.50;29.00;;;;;11.60;98.35;98984.13;4822552;28;104151;-71
2023/05/25 05:31:16;;;;;;;;;32.25;28.50;;;;;11.68;98.93;98984.97;4819668;29;102262;-71
2023/05/25 05:33:43;;;;;;;;;33.50;29.75;;;;;11.63;97.97;98978.28;4821693;29;105665;-71
2023/05/25 05:36:10;;;;;;;;;46.00;37.25;;;;;11.66;98.73;98985.19;4818648;28;102402;-71
2023/05/25 05:38:39;;;;;;;;;34.00;29.25;;;;;11.70;98.88;98991.88;4817111;29;104048;-71
2023/05/25 05:41:12;;;;;;;;;32.00;28.50;;;;;11.74;98.07;98995.91;4819637;29;102320;-71
2023/05/25 05:43:41;;;;;;;;;35.25;27.50;;;;;11.74;98.02;99000.47;4823779;28;102218;-71
2023/05/25 05:46:11;;;;;;;;;29.50;26.00;;;;;11.71;98.68;99001.66;4823544;28;102146;-71
2023/05/25 05:48:38;;;;;;;;;25.75;21.25;;;;;11.84;98.43;99006.38;4821013;28;104076;-71
2023/05/25 05:51:05;;;;;;;;;39.25;32.00;;;;;11.75;97.63;99013.00;4822385;29;101962;-72
2023/05/25 05:53:34;;;;;;;;;38.00;33.00;;;;;11.64;97.96;99011.63;4816536;29;103254;-71
2023/05/25 05:56:02;;;;;;;;;40.75;34.00;;;;;11.67;98.00;99015.81;4822748;28;102452;-71
2023/05/25 05:58:31;;;;;;;;;47.75;36.00;;;;;11.56;98.80;99012.63;4818530;29;104037;-71
2023/05/25 06:00:58;;;;;;;;;41.00;36.00;;;;;11.62;99.16;99011.81;4821568;29;102268;-70
2023/05/25 06:03:28;;;;;;;;;44.50;36.00;;;;;11.52;98.68;99021.34;4821924;29;102276;-70
2023/05/25 06:05:55;;;;;;;;;38.75;35.00;;;;;11.46;97.88;99014.84;4822870;29;101972;-71
2023/05/25 06:08:22;;;;;;;;;39.75;31.00;;;;;11.50;99.21;99020.69;4822053;28;104315;-72
2023/05/25 06:10:49;;;;;;;;;45.00;33.50;;;;;11.46;98.48;99017.53;4820568;29;102885;-72
2023/05/25 06:13:16;;;;;;;;;28.50;25.25;;;;;11.58;98.44;99023.25;4822594;29;102434;-72
2023/05/25 06:15:43;;;;;;;;;33.00;30.50;;;;;11.56;98.30;99023.47;4807832;29;102054;-73
2023/05/25 06:18:11;;;;;;;;;37.50;31.75;;;;;11.51;99.04;99025.91;4819333;29;104090;-72
2023/05/25 06:20:38;;;;;;;;;37.25;33.50;;;;;11.56;98.52;99025.34;4819909;28;102445;-72
2023/05/25 06:23:05;;;;;;;;;40.50;33.00;;;;;11.59;98.18;99033.88;4817861;29;102272;-72
2023/05/25 06:29:18;;;;;;;;;25.75;24.50;;;;;11.76;97.43;99042.56;4816985;29;106982;-72
2023/05/25 06:31:45;;;;;;;;;29.75;28.25;;;;;11.63;97.46;99037.03;4824462;28;101811;-71
2023/05/25 06:34:13;;;;;;;;;37.00;30.50;;;;;11.69;97.14;99038.13;4821761;29;102451;-71
2023/05/25 06:36:40;;;;;;;;;31.75;29.75;;;;;11.74;97.59;99033.84;4820933;28;102200;-71
2023/05/25 06:39:07;;;;;;;;;30.50;28.25;;;;;11.81;96.96;99039.28;4823224;29;104094;-73
2023/05/25 06:41:37;;;;;;;;;27.00;25.25;;;;;11.84;97.47;99038.91;4824246;28;102925;-72
2023/05/25 06:44:04;;;;;;;;;30.75;29.00;;;;;11.87;96.29;99043.91;4824519;29;102113;-72
2023/05/25 06:46:32;;;;;;;;;30.00;27.00;;;;;11.95;95.53;99041.03;4824787;28;102254;-72
2023/05/25 06:49:00;;;;;;;;;31.75;27.25;;;;;11.92;95.38;99041.44;4825251;28;104189;-72
2023/05/25 06:51:27;;;;;;;;;31.00;28.00;;;;;12.03;96.90;99049.00;4823815;28;102357;-72
2023/05/25 06:53:55;;;;;;;;;24.75;20.50;;;;;12.05;95.93;99052.38;4823690;29;102237;-72
2023/05/25 06:56:22;;;;;;;;;26.00;22.25;;;;;12.08;96.57;99051.97;4826449;28;102443;-71
2023/05/25 06:58:50;;;;;;;;;27.00;25.25;;;;;12.03;95.81;99051.72;4821276;28;104060;-71
2023/05/25 07:01:17;;;;;;;;;24.25;22.50;;;;;12.14;96.08;99042.19;4826670;28;102790;-70
2023/05/25 07:03:44;;;;;;;;;31.50;25.25;;;;;12.15;95.73;99041.16;4823635;28;102035;-71
2023/05/25 07:06:11;;;;;;;;;25.75;20.75;;;;;12.17;96.30;99044.50;4822452;28;102034;-70
2023/05/25 07:08:38;;;;;;;;;29.50;26.25;;;;;12.18;95.67;99047.03;4825141;28;104044;-71
2023/05/25 07:11:07;;;;;;;;;27.50;23.00;;;;;12.19;96.23;99056.00;4823847;28;101947;-71
2023/05/25 07:13:35;;;;;;;;;31.00;27.75;;;;;12.08;96.26;99049.25;4823903;28;102025;-71
2023/05/25 07:16:02;;;;;;;;;36.75;32.75;;;;;11.92;96.21;99057.72;4823825;28;102692;-72
2023/05/25 07:18:29;;;;;;;;;32.50;28.50;;;;;11.94;98.12;99055.63;4824867;29;104283;-71
2023/05/25 07:20:56;;;;;;;;;31.75;31.50;;;;;11.87;96.96;99060.16;4824069;29;102086;-71
2023/05/25 07:23:23;;;;;;;;;37.75;34.00;;;;;11.77;97.52;99065.09;4826448;28;101997;-71
2023/05/25 07:25:51;;;;;;;;;39.75;35.25;;;;;11.75;97.82;99067.19;4825465;28;102032;-71
2023/05/25 07:28:18;;;;;;;;;33.50;31.75;;;;;11.74;98.41;99062.78;4821051;28;104071;-71
2023/05/25 07:30:45;;;;;;;;;33.50;30.50;;;;;11.92;98.59;99068.53;4825943;28;101993;-71
2023/05/25 07:33:11;;;;;;;;;31.00;29.75;;;;;11.98;97.15;99081.28;4820062;28;101909;-71
2023/05/25 07:35:39;;;;;;;;;34.25;31.50;;;;;12.03;97.19;99073.41;4826725;28;102149;-72
2023/05/25 07:38:06;;;;;;;;;43.25;35.25;;;;;11.92;98.20;99073.97;4822172;28;104027;-71
2023/05/25 07:40:33;;;;;;;;;30.25;24.50;;;;;11.94;98.63;99067.31;4824985;29;101976;-71
2023/05/25 07:43:00;;;;;;;;;36.00;33.00;;;;;11.99;98.30;99070.25;4824286;29;102196;-72
2023/05/25 07:45:27;;;;;;;;;45.25;36.00;;;;;11.96;96.51;99075.25;4820174;28;105388;-71
2023/05/25 07:47:54;;;;;;;;;48.00;36.50;;;;;11.77;97.45;99079.47;4822090;29;103990;-71
2023/05/25 07:50:22;;;;;;;;;46.25;38.25;;;;;11.72;98.24;99084.66;4820735;28;102006;-71
2023/05/25 07:52:49;;;;;;;;;39.25;33.25;;;;;11.83;98.27;99080.56;4822122;28;102892;-71
2023/05/25 07:55:19;;;;;;;;;32.00;29.50;;;;;11.89;97.27;99086.03;4822763;28;101994;-71
2023/05/25 07:57:46;;;;;;;;;33.00;30.25;;;;;11.92;96.34;99082.94;4822426;29;108864;-71
2023/05/25 08:00:13;;;;;;;;;41.00;34.00;;;;;11.79;96.84;99084.72;4822665;28;102395;-71
2023/05/25 08:02:40;;;;;;;;;33.75;30.50;;;;;11.89;97.24;99074.34;4816816;28;101827;-71
2023/05/25 08:05:08;;;;;;;;;27.75;25.00;;;;;12.00;96.61;99081.94;4823736;29;106949;-71
2023/05/25 08:07:36;;;;;;;;;36.00;29.75;;;;;12.00;97.47;99074.66;4824527;28;104024;-71
2023/05/25 08:10:07;;;;;;;;;28.50;24.75;;;;;12.08;96.09;99070.94;4818704;28;102173;-71
2023/05/25 08:12:34;;;;;;;;;25.75;25.00;;;;;12.07;96.78;99069.25;4823164;28;102032;-71
2023/05/25 08:15:15;;;;;;;;;27.00;24.75;;;;;12.04;96.89;99073.22;4822655;29;102170;-72
2023/05/25 08:17:43;;;;;;;;;33.25;30.75;;;;;11.87;96.52;99071.00;4818490;28;107697;-73
2023/05/25 08:20:11;;;;;;;;;27.75;25.75;;;;;11.94;97.46;99071.88;4808087;29;102106;-72
2023/05/25 08:22:38;;;;;;;;;32.25;26.25;;;;;12.14;96.89;99067.44;4821469;28;101995;-72
2023/05/25 08:25:05;;;;;;;;;27.25;23.50;;;;;12.16;96.04;99070.75;4823008;29;102443;-72
2023/05/25 08:27:32;;;;;;;;;30.25;27.00;;;;;12.21;94.95;99068.28;4821887;28;104043;-72
2023/05/25 08:30:04;;;;;;;;;33.00;24.00;;;;;12.14;94.89;99066.59;4822546;28;101972;-70
2023/05/25 08:32:32;;;;;;;;;28.00;27.25;;;;;12.23;94.88;99071.66;4820168;28;102131;-71
2023/05/25 08:35:00;;;;;;;;;24.00;23.00;;;;;12.39;94.28;99074.03;4822030;28;102018;-72
2023/05/25 08:37:28;;;;;;;;;25.25;24.50;;;;;12.38;94.16;99069.63;4818770;28;104182;-72
2023/05/25 08:39:55;;;;;;;;;23.75;23.00;;;;;12.46;94.27;99071.38;4824603;28;102076;-73
2023/05/25 08:42:22;;;;;;;;;38.50;32.00;;;;;12.29;95.01;99076.25;4824738;29;102135;-72
2023/05/25 08:44:49;;;;;;;;;39.50;33.25;;;;;12.17;94.70;99068.91;4823094;28;102088;-71
2023/05/25 08:47:21;;;;;;;;;33.25;30.25;;;;;12.31;94.93;99079.63;4825195;29;103861;-71
2023/05/25 08:49:49;;;;;;;;;43.00;35.00;;;;;12.27;94.06;99083.78;4820609;28;102616;-71
2023/05/25 08:52:21;;;;;;;;;33.50;29.00;;;;;12.35;94.46;99070.03;4823491;28;101936;-73
2023/05/25 08:54:53;;;;;;;;;35.00;32.00;;;;;12.03;95.43;99032.75;4823380;28;102393;-71
2023/05/25 08:57:28;;;;;;;;;45.50;35.25;;;;;12.14;95.40;99077.44;4821719;28;108757;-71
2023/05/25 08:59:59;;;;;;;;;35.25;32.25;;;;;12.20;95.10;99072.06;4822311;28;101949;-72
2023/05/25 09:02:53;;;;;;;;;31.75;26.25;;;;;12.37;93.77;99075.28;4821082;28;102283;-71
2023/05/25 09:05:21;;;;;;;;;30.50;28.00;;;;;12.40;94.21;99075.72;4821623;28;102341;-72
2023/05/25 09:07:50;;;;;;;;;28.50;26.50;;;;;12.53;94.07;99081.19;4820904;28;104102;-70
2023/05/25 09:10:17;;;;;;;;;31.00;26.25;;;;;12.56;92.35;99076.41;4819732;29;102156;-70
2023/05/25 09:12:45;;;;;;;;;24.50;22.00;;;;;12.74;92.14;99082.13;4820006;28;102124;-71
2023/05/25 09:15:12;;;;;;;;;20.00;16.50;;;;;12.86;92.08;99080.50;4822984;28;102066;-72
2023/05/25 09:17:40;;;;;;;;;26.00;20.75;;;;;12.98;92.20;99076.13;4817898;29;104088;-73
2023/05/25 09:20:12;;;;;;;;;28.50;25.75;;;;;13.04;92.77;99085.34;4819666;28;102259;-72
2023/05/25 09:22:40;;;;;;;;;35.50;29.25;;;;;12.83;92.51;99080.91;4818936;29;101862;-71
2023/05/25 09:25:09;;;;;;;;;41.50;32.75;;;;;12.88;91.71;99086.53;4819915;28;102081;-71
2023/05/25 09:27:37;;;;;;;;;21.75;19.25;;;;;13.09;91.93;99082.84;4822102;28;104057;-70
2023/05/25 09:30:05;;;;;;;;;31.00;28.50;;;;;12.98;91.52;99089.69;4820194;28;101941;-71
2023/05/25 09:32:32;;;;;;;;;26.50;24.75;;;;;13.02;91.17;99088.25;4804456;28;102299;-71
2023/05/25 09:35:13;;;;;;;;;37.50;33.00;;;;;12.76;92.51;99075.44;4803178;28;103022;-72
2023/05/25 09:37:42;;;;;;;;;33.50;29.75;;;;;12.95;92.42;99081.97;4802573;29;104054;-71
2023/05/25 09:40:10;;;;;;;;;28.50;26.25;;;;;12.92;91.21;99087.81;4802857;28;102140;-71
2023/05/25 09:42:37;;;;;;;;;32.00;29.50;;;;;13.05;92.00;99093.28;4802583;29;102477;-72
2023/05/25 09:45:05;;;;;;;;;37.50;34.00;;;;;12.74;93.00;99090.28;4806606;28;102473;-72
2023/05/25 09:47:36;;;;;;;;;48.25;37.00;;;;;12.88;92.82;99086.53;4800006;28;104064;-71
2023/05/25 09:50:04;;;;;;;;;46.25;37.00;;;;;13.05;91.26;99085.16;4804394;29;102252;-71
2023/05/25 09:52:31;;;;;;;;;45.75;37.00;;;;;12.99;90.39;99083.25;4801592;29;102919;-71
2023/05/25 09:54:58;;;;;;;;;39.25;32.25;;;;;13.27;91.45;99086.69;4804019;28;102365;-71
2023/05/25 09:57:26;;;;;;;;;43.25;35.25;;;;;13.16;91.21;99089.16;4802154;29;104244;-71
2023/05/25 09:59:53;;;;;;;;;47.25;36.50;;;;;12.91;91.15;99091.56;4803279;29;109542;-70
2023/05/25 10:02:20;;;;;;;;;44.75;37.50;;;;;12.84;92.68;99101.56;4801607;29;102914;-72
2023/05/25 10:04:47;;;;;;;;;37.25;34.25;;;;;12.98;92.18;99104.13;4801751;28;102176;-72
2023/05/25 10:07:15;;;;;;;;;43.50;35.00;;;;;13.06;91.58;99099.56;4803059;28;104202;-70
2023/05/25 10:09:45;;;;;;;;;45.25;37.00;;;;;13.03;90.67;99099.94;4801576;28;101884;-73
2023/05/25 10:12:18;;;;;;;;;42.75;35.50;;;;;13.22;91.36;99097.31;4804383;28;102750;-70
2023/05/25 10:14:47;;;;;;;;;42.25;35.00;;;;;13.26;90.52;99095.88;4804756;28;102291;-70
2023/05/25 10:17:20;;;;;;;;;49.00;41.50;;;;;13.00;91.30;99089.50;4801848;28;103970;-71
2023/05/25 10:19:54;;;;;;;;;45.25;36.25;;;;;13.18;91.77;99093.34;4806598;29;102100;-70
2023/05/25 10:22:33;;;;;;;;;51.00;42.00;;;;;12.97;90.75;99086.16;4805488;28;102227;-70
2023/05/25 10:25:06;;;;;;;;;39.75;35.50;;;;;13.16;91.66;99094.59;4806507;28;102219;-72
2023/05/25 10:27:39;;;;;;;;;29.75;28.75;;;;;13.42;91.46;99089.19;4818487;28;104158;-72
2023/05/25 10:30:08;;;;;;;;;32.25;31.00;;;;;13.54;89.65;99089.44;4804235;29;102044;-71
2023/05/25 10:32:39;;;;;;;;;34.25;28.00;;;;;13.78;88.96;99089.63;4823551;28;101945;-72
2023/05/25 10:35:09;;;;;;;;;17.25;17.00;;;;;13.90;88.18;99089.84;4825182;28;102189;-70
2023/05/25 10:37:37;;;;;;;;;33.25;29.75;;;;;13.76;88.18;99102.59;4823428;28;104164;-71
2023/05/25 10:40:07;;;;;;;;;46.50;37.00;;;;;13.64;89.57;99098.00;4822575;28;102180;-71
2023/05/25 10:42:35;;;;;;;;;41.50;34.75;;;;;13.60;88.90;99096.75;4825011;29;102470;-72
2023/05/25 10:45:08;;;;;;;;;36.00;32.00;;;;;13.65;88.87;99099.66;4824495;28;106440;-72
2023/05/25 10:47:37;;;;;;;;;49.25;39.50;;;;;13.54;88.81;99092.16;4821564;28;104037;-71
2023/05/25 10:50:05;;;;;;;;;42.50;36.50;;;;;13.56;88.63;99095.47;4821345;28;102360;-72
2023/05/25 10:52:33;;;;;;;;;37.00;32.25;;;;;13.62;88.33;99084.63;4822769;28;102581;-72
2023/05/25 10:55:03;;;;;;;;;28.25;24.00;;;;;13.69;87.85;99090.03;4825353;29;102001;-72
2023/05/25 10:57:30;;;;;;;;;35.75;31.75;;;;;13.67;88.33;99092.16;4820962;28;104446;-70
2023/05/25 11:00:07;;;;;;;;;32.50;30.25;;;;;13.53;88.16;99098.63;4824716;28;102981;-71
2023/05/25 11:02:54;;;;;;;;;34.00;30.25;;;;;13.73;89.73;99080.47;4824019;29;101985;-70
2023/05/25 11:05:34;;;;;;;;;36.25;32.00;;;;;13.78;87.47;99094.22;4824034;28;102427;-72
2023/05/25 11:08:05;;;;;;;;;46.25;40.25;;;;;13.65;89.56;99095.06;4824846;28;108719;-72
2023/05/25 11:10:37;;;;;;;;;47.75;37.75;;;;;13.61;88.17;99093.81;4823138;28;103172;-72
2023/05/25 11:13:34;;;;;;;;;33.50;30.25;;;;;13.86;89.46;99088.59;4823086;28;102144;-71
2023/05/25 11:16:26;;;;;;;;;25.00;24.25;;;;;14.18;86.81;99079.53;4825957;28;102125;-71
2023/05/25 11:18:59;;;;;;;;;22.00;21.25;;;;;14.39;86.61;99072.22;4821006;28;108456;-71
2023/05/25 11:21:26;;;;;;;;;33.00;27.75;;;;;14.36;86.21;99080.81;4823034;28;102301;-71
2023/05/25 11:24:13;;;;;;;;;38.50;31.50;;;;;14.22;86.40;99079.97;4823073;28;102364;-71